Time;durP1;ratioP1;P1;durP2;ratioP2;P2;SDS_P1;SDS_P2;PMS_P1;PMS_P2;Temp;Humidity;BMP_temperature;BMP_pressure;BME280_temperature;BME280_humidity;BME280_pressure;Samples;Min_cycle;Max_cycle;Signal;HPM_P1;HPM_P2
2022/07/19 00:01:53;;;;;;;6.15;2.50;;;19.20;87.90;;;;;;5109920;28;20200;-52
2022/07/19 00:04:22;;;;;;;2.63;2.30;;;19.20;88.10;;;;;;5110059;28;20265;-50
2022/07/19 00:06:50;;;;;;;3.72;2.35;;;19.20;88.20;;;;;;5107909;28;20236;-50
2022/07/19 00:09:18;;;;;;;7.07;2.50;;;19.10;89.10;;;;;;5110040;28;20947;-51
2022/07/19 00:11:47;;;;;;;5.57;2.80;;;19.10;88.60;;;;;;5109969;28;20223;-52
2022/07/19 00:14:16;;;;;;;2.55;2.35;;;19.10;88.90;;;;;;5110102;28;20203;-50
2022/07/19 00:16:44;;;;;;;5.50;2.40;;;19.10;89.90;;;;;;5110059;28;20211;-51
2022/07/19 00:19:12;;;;;;;3.08;2.30;;;19.00;89.20;;;;;;5109679;28;20222;-50
2022/07/19 00:21:40;;;;;;;4.55;2.20;;;19.00;89.70;;;;;;5110230;28;20249;-51
2022/07/19 00:24:09;;;;;;;3.15;2.50;;;19.00;89.60;;;;;;5109956;28;20617;-50
2022/07/19 00:26:37;;;;;;;3.65;2.40;;;18.90;89.80;;;;;;5110361;28;20203;-50
2022/07/19 00:29:06;;;;;;;3.08;2.33;;;18.90;90.00;;;;;;5109808;28;20199;-50
2022/07/19 00:31:34;;;;;;;4.25;2.40;;;18.80;90.10;;;;;;5109010;28;20700;-51
2022/07/19 00:34:03;;;;;;;4.10;2.47;;;18.70;90.10;;;;;;5110133;28;20671;-52
2022/07/19 00:36:31;;;;;;;5.10;2.80;;;18.70;90.40;;;;;;5109152;28;20256;-51
2022/07/19 00:38:59;;;;;;;4.63;2.53;;;18.70;90.40;;;;;;5109652;28;20572;-51
2022/07/19 00:41:27;;;;;;;3.55;2.38;;;18.70;90.50;;;;;;5109874;28;20280;-52
2022/07/19 00:43:56;;;;;;;2.83;2.42;;;18.70;90.50;;;;;;5110103;28;20253;-52
2022/07/19 00:46:26;;;;;;;8.27;2.75;;;18.70;90.70;;;;;;5110177;28;20227;-51
2022/07/19 00:48:54;;;;;;;4.78;2.50;;;18.60;90.70;;;;;;5110012;28;20290;-51
2022/07/19 00:51:22;;;;;;;3.90;2.47;;;18.60;90.80;;;;;;5110073;28;20223;-51
2022/07/19 00:53:52;;;;;;;3.00;2.42;;;18.60;91.00;;;;;;5114475;28;20280;-52
2022/07/19 00:56:21;;;;;;;4.47;2.60;;;18.50;91.00;;;;;;5110830;28;20227;-52
2022/07/19 00:58:50;;;;;;;5.30;2.38;;;18.50;91.20;;;;;;5113044;28;20631;-52
2022/07/19 01:01:19;;;;;;;3.85;2.63;;;18.50;91.30;;;;;;5113158;28;20200;-52
2022/07/19 01:03:50;;;;;;;3.40;2.40;;;18.50;91.40;;;;;;5113524;28;20288;-52
2022/07/19 01:06:18;;;;;;;4.63;2.80;;;18.50;91.60;;;;;;5112404;28;20224;-52
2022/07/19 01:08:46;;;;;;;3.72;2.42;;;18.50;91.70;;;;;;5113511;28;20210;-52
2022/07/19 01:11:14;;;;;;;2.70;2.50;;;18.50;91.70;;;;;;5113600;28;20273;-52
2022/07/19 01:13:42;;;;;;;4.30;2.40;;;18.60;91.70;;;;;;5113319;28;20249;-52
2022/07/19 01:16:10;;;;;;;3.80;2.47;;;18.50;91.70;;;;;;5113243;28;20231;-52
2022/07/19 01:18:38;;;;;;;4.03;2.53;;;18.40;91.90;;;;;;5113471;28;20236;-51
2022/07/19 01:21:10;;;;;;;3.70;2.47;;;18.40;92.10;;;;;;5113194;28;20211;-52
2022/07/19 01:23:39;;;;;;;2.70;2.50;;;18.30;92.20;;;;;;5112940;28;20196;-51
2022/07/19 01:26:07;;;;;;;3.83;2.33;;;18.20;92.30;;;;;;5112780;28;20789;-52
2022/07/19 01:28:36;;;;;;;4.10;2.75;;;18.20;92.50;;;;;;5113646;28;20203;-50
2022/07/19 01:31:04;;;;;;;3.67;2.55;;;18.10;92.60;;;;;;5112545;28;20211;-52
2022/07/19 01:33:32;;;;;;;4.00;2.45;;;18.10;92.50;;;;;;5113059;28;20256;-50
2022/07/19 01:36:00;;;;;;;5.00;2.53;;;18.00;92.70;;;;;;5112162;28;20235;-51
2022/07/19 01:38:28;;;;;;;4.95;2.90;;;18.10;92.90;;;;;;5112737;28;20204;-52
2022/07/19 01:40:58;;;;;;;2.75;2.30;;;18.00;93.00;;;;;;5112890;28;20622;-51
2022/07/19 01:43:26;;;;;;;2.70;2.40;;;18.00;93.20;;;;;;5113017;28;20187;-51
2022/07/19 01:45:55;;;;;;;5.32;2.28;;;17.90;93.20;;;;;;5113085;28;20763;-52
2022/07/19 01:48:23;;;;;;;3.38;2.20;;;18.00;93.40;;;;;;5112593;28;20276;-52
2022/07/19 01:50:51;;;;;;;5.25;2.80;;;17.90;93.30;;;;;;5112885;28;20253;-52
2022/07/19 01:53:19;;;;;;;3.55;2.72;;;17.90;93.50;;;;;;5112321;28;20272;-50
2022/07/19 01:55:47;;;;;;;2.95;2.70;;;17.90;93.60;;;;;;5113130;28;20273;-52
2022/07/19 01:58:16;;;;;;;5.13;2.80;;;17.80;93.60;;;;;;5113023;28;20669;-51
2022/07/19 02:00:45;;;;;;;4.85;2.63;;;17.80;93.70;;;;;;5111727;28;20265;-53
2022/07/19 02:03:13;;;;;;;5.05;2.58;;;17.80;93.70;;;;;;5118013;28;20204;-52
2022/07/19 02:05:41;;;;;;;4.45;2.60;;;17.70;94.20;;;;;;5117306;28;20232;-51
2022/07/19 02:08:09;;;;;;;5.20;2.90;;;17.70;94.00;;;;;;5114369;28;20211;-52
2022/07/19 02:10:37;;;;;;;4.70;3.13;;;17.70;94.10;;;;;;5112435;28;20203;-50
2022/07/19 02:13:05;;;;;;;5.47;3.00;;;17.60;94.20;;;;;;5111740;28;20259;-51
2022/07/19 02:15:35;;;;;;;3.67;2.58;;;17.60;94.30;;;;;;5111543;28;20219;-50
2022/07/19 02:18:03;;;;;;;3.67;2.30;;;17.50;94.20;;;;;;5111725;28;20660;-52
2022/07/19 02:20:31;;;;;;;3.50;2.47;;;17.50;94.30;;;;;;5111993;28;20646;-52
2022/07/19 02:22:59;;;;;;;3.53;2.78;;;17.50;94.40;;;;;;5111595;28;20690;-52
2022/07/19 02:25:27;;;;;;;5.60;3.45;;;17.50;94.50;;;;;;5111975;28;20223;-52
2022/07/19 02:27:55;;;;;;;5.10;3.25;;;17.50;94.60;;;;;;5112438;28;20688;-52
2022/07/19 02:30:23;;;;;;;3.22;2.75;;;17.40;94.50;;;;;;5111309;28;20212;-52
2022/07/19 02:32:52;;;;;;;3.10;2.28;;;17.40;95.10;;;;;;5111934;28;20227;-53
2022/07/19 02:35:26;;;;;;;4.47;2.90;;;17.30;94.80;;;;;;5112585;28;20235;-52
2022/07/19 02:37:54;;;;;;;4.78;3.10;;;17.30;95.10;;;;;;5115674;28;20280;-52
2022/07/19 02:40:22;;;;;;;3.78;2.50;;;17.30;95.20;;;;;;5112171;28;20256;-51
2022/07/19 02:42:50;;;;;;;5.18;2.63;;;17.30;95.20;;;;;;5111993;28;20204;-51
2022/07/19 02:45:18;;;;;;;3.67;2.67;;;17.20;95.30;;;;;;5111957;28;20283;-52
2022/07/19 02:47:46;;;;;;;5.78;2.40;;;17.20;95.40;;;;;;5111293;28;20614;-51
2022/07/19 02:50:16;;;;;;;3.63;2.60;;;17.20;95.60;;;;;;5109505;28;20207;-50
2022/07/19 02:52:44;;;;;;;4.55;2.65;;;17.20;95.40;;;;;;5110893;28;20272;-51
2022/07/19 02:55:12;;;;;;;3.55;2.72;;;17.20;95.50;;;;;;5111571;28;20228;-52
2022/07/19 02:57:40;;;;;;;4.15;2.78;;;17.10;95.50;;;;;;5111526;28;20203;-52
2022/07/19 03:00:09;;;;;;;3.97;2.97;;;17.10;95.60;;;;;;5111115;28;20199;-50
2022/07/19 03:02:38;;;;;;;3.65;2.97;;;17.10;95.70;;;;;;5111641;28;20348;-52
2022/07/19 03:05:07;;;;;;;3.75;2.97;;;17.10;95.80;;;;;;5111220;28;20759;-52
2022/07/19 03:07:36;;;;;;;5.20;2.85;;;17.00;95.80;;;;;;5111333;28;20207;-51
2022/07/19 03:10:06;;;;;;;4.80;2.80;;;17.00;95.90;;;;;;5111570;28;20208;-51
2022/07/19 03:12:34;;;;;;;4.22;2.40;;;17.00;95.90;;;;;;5110916;28;20745;-51
2022/07/19 03:15:03;;;;;;;4.65;3.00;;;17.00;96.10;;;;;;5110589;28;20227;-52
2022/07/19 03:17:31;;;;;;;4.85;3.00;;;16.90;96.20;;;;;;5110869;28;20200;-51
2022/07/19 03:19:59;;;;;;;5.80;3.47;;;16.90;96.10;;;;;;5110484;28;20207;-52
2022/07/19 03:22:27;;;;;;;5.40;3.55;;;16.90;96.40;;;;;;5110391;28;20725;-52
2022/07/19 03:24:57;;;;;;;7.32;3.30;;;16.90;96.20;;;;;;5110737;28;20231;-51
2022/07/19 03:27:25;;;;;;;6.35;3.22;;;16.90;96.40;;;;;;5111007;28;20207;-52
2022/07/19 03:29:53;;;;;;;6.00;2.95;;;16.90;96.30;;;;;;5110264;28;20675;-52
2022/07/19 03:32:21;;;;;;;4.22;2.60;;;16.90;96.30;;;;;;5111033;28;20324;-52
2022/07/19 03:34:49;;;;;;;4.10;2.72;;;16.80;96.40;;;;;;5110290;28;20227;-52
2022/07/19 03:37:17;;;;;;;3.75;2.65;;;16.80;96.40;;;;;;5109952;28;20244;-52
2022/07/19 03:39:45;;;;;;;3.58;2.40;;;16.80;96.50;;;;;;5110595;28;20630;-52
2022/07/19 03:42:14;;;;;;;5.70;2.70;;;16.80;96.60;;;;;;5110950;28;20225;-52
2022/07/19 03:44:42;;;;;;;5.35;2.60;;;16.80;96.70;;;;;;5110612;28;20227;-52
2022/07/19 03:47:10;;;;;;;4.22;3.00;;;16.80;96.90;;;;;;5110243;28;20225;-52
2022/07/19 03:49:39;;;;;;;5.63;3.05;;;16.80;97.00;;;;;;5111081;28;20203;-51
2022/07/19 03:52:07;;;;;;;5.07;2.55;;;16.80;97.10;;;;;;5110340;28;20389;-52
2022/07/19 03:54:35;;;;;;;4.13;2.50;;;16.90;97.10;;;;;;5110111;28;20239;-51
2022/07/19 03:57:03;;;;;;;5.30;2.83;;;16.90;97.20;;;;;;5110590;28;20233;-50
2022/07/19 03:59:33;;;;;;;4.40;2.50;;;16.90;97.10;;;;;;5109468;28;20681;-52
2022/07/19 04:02:01;;;;;;;5.18;3.10;;;16.90;97.00;;;;;;5110000;28;20714;-51
2022/07/19 04:04:29;;;;;;;3.80;2.97;;;16.90;97.20;;;;;;5109707;28;20230;-52
2022/07/19 04:06:57;;;;;;;5.65;2.90;;;16.90;97.30;;;;;;5109725;28;20211;-51
2022/07/19 04:09:26;;;;;;;7.13;3.00;;;16.80;97.80;;;;;;5110606;28;20207;-51
2022/07/19 04:11:55;;;;;;;4.15;2.88;;;16.80;98.50;;;;;;5110733;28;20211;-52
2022/07/19 04:14:23;;;;;;;5.10;2.80;;;16.80;98.60;;;;;;5109872;28;20223;-52
2022/07/19 04:16:52;;;;;;;4.38;2.83;;;16.80;98.30;;;;;;5110398;28;20207;-51
2022/07/19 04:19:20;;;;;;;4.43;2.60;;;16.90;97.90;;;;;;5112600;28;20715;-51
2022/07/19 04:21:48;;;;;;;5.22;2.85;;;17.10;97.80;;;;;;5109930;28;20212;-52
2022/07/19 04:24:16;;;;;;;5.63;2.75;;;18.00;97.40;;;;;;5109857;28;20204;-50
2022/07/19 04:26:44;;;;;;;4.82;3.28;;;18.90;96.30;;;;;;5110037;28;20211;-52
2022/07/19 04:29:12;;;;;;;4.50;2.88;;;19.60;95.20;;;;;;5109651;28;20237;-52
2022/07/19 04:31:40;;;;;;;3.28;2.65;;;20.20;94.60;;;;;;5110125;28;20264;-51
2022/07/19 04:34:10;;;;;;;5.45;2.67;;;20.70;93.70;;;;;;5114051;28;20222;-51
2022/07/19 04:36:38;;;;;;;3.22;2.70;;;21.10;93.20;;;;;;5113344;28;20219;-52
2022/07/19 04:39:06;;;;;;;5.60;2.80;;;21.50;92.80;;;;;;5114252;28;20207;-52
2022/07/19 04:41:34;;;;;;;3.88;2.80;;;21.80;92.40;;;;;;5113847;28;20207;-52
2022/07/19 04:44:03;;;;;;;2.92;2.58;;;22.10;92.80;;;;;;5111589;28;20203;-51
2022/07/19 04:46:31;;;;;;;9.00;2.83;;;22.40;92.20;;;;;;5113003;28;20207;-52
2022/07/19 04:48:59;;;;;;;4.18;2.90;;;22.80;91.60;;;;;;5113863;28;20207;-52
2022/07/19 04:51:29;;;;;;;5.55;2.78;;;23.10;91.70;;;;;;5113842;28;20256;-53
2022/07/19 04:53:57;;;;;;;6.40;2.90;;;23.40;91.00;;;;;;5113487;28;20227;-52
2022/07/19 04:56:25;;;;;;;5.45;2.60;;;23.80;91.10;;;;;;5112248;28;20231;-52
2022/07/19 04:58:53;;;;;;;5.60;2.58;;;24.10;91.00;;;;;;5110534;28;20745;-52
2022/07/19 05:01:21;;;;;;;5.03;2.78;;;24.50;88.40;;;;;;5112728;28;20212;-52
2022/07/19 05:03:49;;;;;;;5.07;2.75;;;24.90;87.50;;;;;;5111834;28;20208;-52
2022/07/19 05:06:17;;;;;;;5.22;2.97;;;24.80;86.30;;;;;;5107148;28;20704;-51
2022/07/19 05:08:47;;;;;;;4.38;3.10;;;25.10;86.70;;;;;;5113565;28;20256;-52
2022/07/19 05:11:15;;;;;;;5.53;3.30;;;25.70;85.80;;;;;;5113262;28;20626;-51
2022/07/19 05:13:43;;;;;;;5.18;2.80;;;25.90;84.80;;;;;;5112443;28;20700;-53
2022/07/19 05:16:11;;;;;;;3.90;2.58;;;26.00;86.30;;;;;;5112173;28;20262;-52
2022/07/19 05:18:39;;;;;;;4.82;2.53;;;26.10;84.80;;;;;;5113166;28;20287;-52
2022/07/19 05:21:09;;;;;;;4.95;2.40;;;26.50;84.50;;;;;;5113482;28;20234;-52
2022/07/19 05:23:37;;;;;;;6.03;2.70;;;26.80;84.40;;;;;;5113102;28;20229;-52
2022/07/19 05:26:06;;;;;;;7.50;3.00;;;26.90;83.50;;;;;;5112716;28;20228;-52
2022/07/19 05:28:34;;;;;;;4.68;2.65;;;27.30;81.80;;;;;;5107404;27;20200;-51
2022/07/19 05:31:04;;;;;;;3.78;2.65;;;27.30;82.10;;;;;;5110594;28;20306;-51
2022/07/19 05:33:32;;;;;;;5.68;2.50;;;27.40;81.10;;;;;;5112072;27;20269;-52
2022/07/19 05:36:00;;;;;;;5.18;2.70;;;27.80;80.90;;;;;;5106130;27;20232;-52
2022/07/19 05:38:29;;;;;;;6.35;2.65;;;28.10;80.30;;;;;;5110180;28;20733;-52
2022/07/19 05:40:57;;;;;;;4.20;2.58;;;28.30;80.20;;;;;;5112928;28;20277;-53
2022/07/19 05:43:27;;;;;;;5.05;3.03;;;28.50;79.80;;;;;;5104462;28;20204;-51
2022/07/19 05:45:55;;;;;;;7.13;3.22;;;28.80;78.00;;;;;;5107846;27;20616;-52
2022/07/19 05:48:23;;;;;;;6.85;2.80;;;29.10;78.00;;;;;;5111646;28;20291;-52
2022/07/19 05:50:51;;;;;;;4.53;2.92;;;29.30;80.10;;;;;;5111949;28;20200;-52
2022/07/19 05:53:19;;;;;;;5.20;2.78;;;29.40;79.60;;;;;;5102181;28;20673;-52
2022/07/19 05:55:47;;;;;;;4.20;2.80;;;29.50;79.60;;;;;;5112802;28;20272;-52
2022/07/19 05:58:17;;;;;;;4.13;2.50;;;29.60;81.60;;;;;;5113047;28;20208;-52
2022/07/19 06:03:29;;;;;;;4.45;2.75;;;30.10;81.00;;;;;;5111303;28;20209;-52
2022/07/19 06:05:58;;;;;;;4.78;2.85;;;29.90;79.70;;;;;;5109914;28;20227;-51
2022/07/19 06:08:26;;;;;;;3.60;2.67;;;30.00;78.60;;;;;;5110086;28;20208;-52
2022/07/19 06:10:54;;;;;;;3.97;2.42;;;30.00;78.70;;;;;;5111258;28;20264;-52
2022/07/19 06:13:23;;;;;;;4.10;2.78;;;30.10;80.10;;;;;;5110542;28;20211;-52
2022/07/19 06:15:53;;;;;;;4.18;2.50;;;30.30;78.80;;;;;;5112884;28;20259;-53
2022/07/19 06:18:21;;;;;;;3.97;2.47;;;30.60;79.30;;;;;;5112504;28;20203;-53
2022/07/19 06:20:49;;;;;;;4.30;2.42;;;30.80;78.10;;;;;;5112030;28;20223;-52
2022/07/19 06:23:17;;;;;;;3.25;2.60;;;31.20;77.20;;;;;;5112011;28;20572;-52
2022/07/19 06:25:47;;;;;;;4.35;2.47;;;31.40;77.80;;;;;;5110734;28;20223;-53
2022/07/19 06:28:15;;;;;;;5.97;2.50;;;31.50;75.60;;;;;;5111503;28;20233;-52
2022/07/19 06:30:43;;;;;;;5.18;2.95;;;31.70;75.10;;;;;;5111085;28;20203;-53
2022/07/19 06:33:12;;;;;;;4.13;2.47;;;31.70;74.90;;;;;;5111266;28;20203;-52
2022/07/19 06:35:41;;;;;;;4.30;2.28;;;31.80;75.30;;;;;;5111058;28;20883;-52
2022/07/19 06:38:09;;;;;;;4.70;2.70;;;31.80;73.90;;;;;;5111624;28;20207;-52
2022/07/19 06:40:37;;;;;;;5.25;2.90;;;32.10;75.50;;;;;;5110109;28;20203;-52
2022/07/19 06:43:05;;;;;;;3.08;2.60;;;32.30;75.20;;;;;;5111690;28;20207;-53
2022/07/19 06:45:33;;;;;;;3.95;2.55;;;32.40;75.90;;;;;;5112024;28;20279;-52
2022/07/19 06:48:01;;;;;;;4.07;2.65;;;32.70;74.10;;;;;;5112574;28;20210;-53
2022/07/19 06:50:30;;;;;;;3.75;2.60;;;32.90;73.90;;;;;;5111361;28;20211;-52
2022/07/19 06:53:09;;;;;;;4.78;2.90;;;33.00;71.20;;;;;;5111035;28;20213;-52
2022/07/19 06:55:37;;;;;;;5.78;2.45;;;33.10;71.50;;;;;;5109399;28;20283;-52
2022/07/19 06:58:05;;;;;;;4.88;2.33;;;33.20;70.10;;;;;;5111821;28;20203;-51
2022/07/19 07:00:33;;;;;;;6.72;2.60;;;33.30;67.60;;;;;;5110782;28;20207;-53
2022/07/19 07:03:01;;;;;;;5.85;2.88;;;33.40;66.70;;;;;;5111006;28;20215;-53
2022/07/19 07:05:31;;;;;;;3.78;2.67;;;33.40;66.90;;;;;;5111174;28;20296;-52
2022/07/19 07:07:59;;;;;;;4.90;2.88;;;33.40;64.90;;;;;;5111175;28;20203;-53
2022/07/19 07:10:27;;;;;;;2.72;2.33;;;33.70;66.80;;;;;;5111311;28;20199;-51
2022/07/19 07:12:56;;;;;;;5.53;2.50;;;33.90;65.80;;;;;;5111630;28;20203;-52
2022/07/19 07:15:24;;;;;;;3.63;2.53;;;34.00;63.70;;;;;;5110198;28;20283;-52
2022/07/19 07:17:52;;;;;;;4.97;2.50;;;34.10;63.80;;;;;;5110835;28;20268;-52
2022/07/19 07:20:20;;;;;;;4.38;2.50;;;34.20;65.80;;;;;;5110824;28;20354;-51
2022/07/19 07:22:49;;;;;;;5.10;2.40;;;34.30;63.90;;;;;;5110215;28;20284;-52
2022/07/19 07:25:18;;;;;;;3.80;2.60;;;34.40;65.00;;;;;;5110647;28;20218;-52
2022/07/19 07:27:46;;;;;;;5.25;2.40;;;34.50;63.00;;;;;;5108886;28;20288;-52
2022/07/19 07:30:14;;;;;;;4.88;2.25;;;34.60;63.50;;;;;;5108761;28;20195;-52
2022/07/19 07:32:42;;;;;;;4.90;2.30;;;34.60;62.90;;;;;;5108907;28;20207;-51
2022/07/19 07:35:10;;;;;;;3.80;2.20;;;34.60;63.60;;;;;;5098015;28;20219;-52
2022/07/19 07:37:38;;;;;;;5.15;2.50;;;34.60;60.50;;;;;;5090220;28;20199;-52
2022/07/19 07:40:09;;;;;;;5.88;2.50;;;34.60;64.10;;;;;;5095554;28;20203;-53
2022/07/19 07:42:37;;;;;;;5.45;2.45;;;34.60;60.10;;;;;;5099508;28;20749;-53
2022/07/19 07:45:07;;;;;;;3.20;2.05;;;34.70;60.70;;;;;;5110562;28;20222;-52
2022/07/19 07:47:35;;;;;;;4.50;2.38;;;34.90;60.60;;;;;;5110042;28;20271;-53
2022/07/19 07:50:04;;;;;;;6.10;2.42;;;35.00;59.60;;;;;;5110300;28;20338;-51
2022/07/19 07:52:32;;;;;;;4.80;2.25;;;35.00;58.60;;;;;;5109616;28;20207;-53
2022/07/19 07:55:01;;;;;;;4.13;2.08;;;35.10;57.70;;;;;;5102513;28;20390;-53
2022/07/19 07:57:50;;;;;;;2.17;2.00;;;35.00;59.90;;;;;;5104897;28;20309;-52
2022/07/19 08:00:18;;;;;;;4.22;2.20;;;35.00;57.70;;;;;;5104434;28;20203;-51
2022/07/19 08:02:49;;;;;;;6.85;2.20;;;35.20;57.60;;;;;;5105616;28;20668;-51
2022/07/19 08:05:22;;;;;;;4.13;2.28;;;35.00;56.20;;;;;;5107558;28;20229;-52
2022/07/19 08:07:50;;;;;;;5.15;2.17;;;35.10;56.50;;;;;;5109636;28;20203;-52
2022/07/19 08:10:21;;;;;;;3.65;2.40;;;35.30;55.60;;;;;;5109921;28;20294;-52
2022/07/19 08:12:50;;;;;;;2.92;1.90;;;35.20;55.00;;;;;;5109172;28;20256;-52
2022/07/19 08:15:19;;;;;;;5.07;2.33;;;35.00;56.00;;;;;;5109495;28;20222;-52
2022/07/19 08:17:47;;;;;;;3.97;2.45;;;34.60;55.70;;;;;;5108590;28;20207;-53
2022/07/19 08:20:15;;;;;;;3.78;2.03;;;34.40;55.70;;;;;;5099550;28;20207;-52
2022/07/19 08:22:44;;;;;;;4.75;2.30;;;34.20;55.00;;;;;;5105552;28;20265;-52
2022/07/19 08:25:14;;;;;;;8.40;2.38;;;34.00;55.70;;;;;;5105984;28;20604;-52
2022/07/19 08:27:43;;;;;;;5.70;2.00;;;34.00;57.00;;;;;;5105874;28;20260;-53
2022/07/19 08:30:13;;;;;;;3.90;2.25;;;33.80;56.40;;;;;;5106690;28;20621;-53
2022/07/19 08:32:42;;;;;;;3.92;2.00;;;33.70;56.30;;;;;;5106835;28;20277;-53
2022/07/19 08:35:11;;;;;;;6.20;2.20;;;33.80;55.80;;;;;;5107460;28;20632;-52
2022/07/19 08:37:39;;;;;;;5.28;2.10;;;33.70;57.00;;;;;;5108972;28;20264;-52
2022/07/19 08:40:09;;;;;;;3.30;1.98;;;33.70;56.50;;;;;;5109526;28;20207;-53
2022/07/19 08:42:38;;;;;;;5.43;2.20;;;33.60;56.70;;;;;;5110591;28;20203;-52
2022/07/19 08:45:08;;;;;;;5.03;2.15;;;33.60;55.10;;;;;;5109663;28;20223;-52
2022/07/19 08:47:39;;;;;;;4.95;2.25;;;33.70;54.50;;;;;;5110179;28;20211;-52
2022/07/19 08:50:09;;;;;;;4.45;1.95;;;33.70;55.60;;;;;;5109687;28;20264;-52
2022/07/19 08:52:38;;;;;;;5.07;2.47;;;33.60;54.80;;;;;;5106911;28;20203;-51
2022/07/19 08:55:07;;;;;;;5.43;2.20;;;33.70;54.70;;;;;;5109728;28;20995;-51
2022/07/19 09:00:21;;;;;;;3.47;2.10;;;33.50;54.20;;;;;;5108310;28;20211;-52
2022/07/19 09:02:55;;;;;;;3.63;2.08;;;33.60;55.40;;;;;;5105599;28;20844;-52
2022/07/19 09:05:24;;;;;;;3.17;2.20;;;33.60;54.90;;;;;;5106435;28;20215;-51
2022/07/19 09:08:08;;;;;;;4.65;2.00;;;33.60;54.80;;;;;;5106164;28;20898;-51
2022/07/19 09:10:38;;;;;;;2.22;2.03;;;33.70;55.10;;;;;;5110228;28;20203;-53
2022/07/19 09:13:09;;;;;;;5.20;2.30;;;33.70;55.10;;;;;;5112212;28;20619;-52
2022/07/19 09:15:39;;;;;;;3.00;2.20;;;33.70;54.00;;;;;;5111960;28;20686;-51
2022/07/19 09:18:10;;;;;;;4.25;2.13;;;33.60;53.30;;;;;;5108711;28;20292;-53
2022/07/19 09:20:39;;;;;;;3.55;2.00;;;33.70;53.50;;;;;;5112370;28;20212;-53
2022/07/19 09:23:07;;;;;;;2.58;2.10;;;33.70;53.70;;;;;;5112521;28;20203;-52
2022/07/19 09:25:37;;;;;;;3.83;2.42;;;33.70;54.00;;;;;;5110080;28;20223;-53
2022/07/19 09:28:05;;;;;;;4.90;2.42;;;33.70;54.10;;;;;;5109026;28;20623;-51
2022/07/19 09:30:37;;;;;;;4.03;2.28;;;33.80;53.60;;;;;;5112636;28;20215;-52
2022/07/19 09:33:17;;;;;;;3.50;2.40;;;33.80;53.10;;;;;;5099909;28;20208;-52
2022/07/19 09:35:46;;;;;;;4.97;2.63;;;33.80;53.40;;;;;;5099014;28;20393;-51
2022/07/19 09:38:16;;;;;;;3.65;2.28;;;33.80;53.40;;;;;;5097588;28;20253;-52
2022/07/19 09:40:44;;;;;;;4.32;2.70;;;33.90;53.30;;;;;;5112437;28;20203;-51
2022/07/19 09:43:12;;;;;;;7.38;2.67;;;34.00;54.00;;;;;;5112595;28;20212;-53
2022/07/19 09:46:00;;;;;;;4.65;2.45;;;33.90;53.60;;;;;;5111511;28;20884;-52
2022/07/19 09:48:44;;;;;;;3.63;2.60;;;34.00;53.80;;;;;;5113099;28;20211;-52
2022/07/19 09:51:12;;;;;;;4.55;2.35;;;34.00;53.20;;;;;;5115715;28;20260;-52
2022/07/19 09:53:42;;;;;;;4.97;2.67;;;33.90;54.30;;;;;;5112368;28;20211;-53
2022/07/19 09:56:11;;;;;;;6.10;2.25;;;34.00;54.10;;;;;;5112804;28;20292;-52
2022/07/19 09:58:40;;;;;;;6.32;2.67;;;34.00;54.40;;;;;;5112489;28;20215;-52
2022/07/19 10:01:10;;;;;;;6.10;2.63;;;34.00;53.50;;;;;;5112623;28;20211;-52
2022/07/19 10:03:41;;;;;;;5.00;2.22;;;33.90;52.60;;;;;;5112739;28;20260;-52
2022/07/19 10:06:10;;;;;;;4.78;2.40;;;34.00;53.70;;;;;;5111952;28;20223;-52
2022/07/19 10:08:38;;;;;;;4.88;2.63;;;34.00;53.60;;;;;;5103829;28;20248;-52
2022/07/19 10:11:07;;;;;;;7.88;2.65;;;34.00;54.40;;;;;;5111139;28;20741;-52
2022/07/19 10:13:36;;;;;;;5.28;2.30;;;34.10;52.90;;;;;;5111182;28;20203;-52
2022/07/19 10:16:09;;;;;;;3.75;2.20;;;34.20;53.00;;;;;;5107771;28;20282;-52
2022/07/19 10:18:52;;;;;;;8.65;2.70;;;34.20;53.40;;;;;;5112003;28;20239;-53
2022/07/19 10:21:20;;;;;;;4.93;2.40;;;34.20;53.10;;;;;;5108163;28;20207;-51
2022/07/19 10:23:54;;;;;;;3.15;2.55;;;34.20;52.40;;;;;;5111301;28;20207;-52
2022/07/19 10:26:34;;;;;;;5.93;2.40;;;34.20;53.20;;;;;;5111886;28;20276;-52
2022/07/19 10:29:10;;;;;;;6.32;2.60;;;34.20;54.70;;;;;;5109800;28;20216;-52
2022/07/19 10:31:40;;;;;;;4.97;2.55;;;34.20;52.40;;;;;;5110504;28;20223;-51
2022/07/19 10:34:11;;;;;;;5.80;2.65;;;34.30;52.80;;;;;;5110591;28;20200;-53
2022/07/19 10:36:41;;;;;;;6.00;2.50;;;34.30;53.90;;;;;;5110702;28;20264;-52
2022/07/19 10:39:31;;;;;;;5.10;2.50;;;34.30;53.20;;;;;;5100330;28;20264;-53
2022/07/19 10:42:10;;;;;;;10.23;2.90;;;34.30;53.20;;;;;;5111027;28;20238;-53
2022/07/19 10:45:19;;;;;;;3.72;2.50;;;34.40;53.90;;;;;;5110889;28;20235;-52
2022/07/19 10:48:16;;;;;;;10.25;2.60;;;34.30;53.30;;;;;;5063944;28;20256;-53
2022/07/19 10:50:54;;;;;;;4.68;2.40;;;34.30;53.10;;;;;;5110438;28;20903;-52
2022/07/19 10:54:06;;;;;;;5.93;2.70;;;34.30;52.90;;;;;;5110535;28;20213;-52
2022/07/19 10:56:43;;;;;;;4.15;2.53;;;34.40;51.20;;;;;;5103188;28;20328;-52
2022/07/19 10:59:37;;;;;;;3.65;2.70;;;34.40;52.60;;;;;;5111129;28;20207;-53
2022/07/19 11:02:06;;;;;;;3.92;2.55;;;34.40;50.50;;;;;;5110388;28;20226;-52
2022/07/19 11:04:56;;;;;;;3.75;2.72;;;34.40;51.50;;;;;;5100325;28;20318;-52
2022/07/19 11:07:26;;;;;;;5.15;2.85;;;34.40;52.10;;;;;;5109274;28;20588;-52
2022/07/19 11:09:56;;;;;;;6.32;2.40;;;34.40;51.70;;;;;;5100659;28;20489;-53
2022/07/19 11:12:33;;;;;;;3.85;2.40;;;34.30;51.70;;;;;;5105697;28;20252;-57
2022/07/19 11:15:05;;;;;;;8.10;2.70;;;34.30;52.60;;;;;;5108164;28;20230;-53
2022/07/19 11:17:54;;;;;;;3.83;2.30;;;34.20;51.60;;;;;;5107862;28;20235;-53
2022/07/19 11:20:24;;;;;;;5.45;2.42;;;34.20;51.90;;;;;;5108725;28;20222;-52
2022/07/19 11:22:56;;;;;;;5.95;2.83;;;34.20;52.50;;;;;;5107218;28;20699;-53
2022/07/19 11:25:26;;;;;;;5.13;2.75;;;34.30;54.20;;;;;;5108545;28;20235;-53
2022/07/19 11:27:55;;;;;;;8.90;3.00;;;34.40;53.10;;;;;;5109717;28;20230;-53
2022/07/19 11:30:26;;;;;;;5.95;3.05;;;34.40;52.90;;;;;;5109999;28;20208;-53
2022/07/19 11:32:57;;;;;;;5.55;2.70;;;34.50;52.30;;;;;;5109999;28;20234;-54
2022/07/19 11:35:26;;;;;;;5.15;3.05;;;34.40;53.00;;;;;;5109216;28;20284;-53
2022/07/19 11:37:57;;;;;;;5.00;2.70;;;34.40;51.00;;;;;;5109233;28;20280;-52
2022/07/19 11:40:32;;;;;;;4.55;2.90;;;34.40;50.50;;;;;;5109845;28;20260;-53
2022/07/19 11:43:05;;;;;;;5.43;2.80;;;34.40;51.40;;;;;;5110366;28;20256;-52
2022/07/19 11:45:45;;;;;;;5.22;2.78;;;34.40;52.10;;;;;;5109600;28;20227;-53
2022/07/19 11:48:23;;;;;;;3.95;2.63;;;34.40;51.20;;;;;;5109409;28;20277;-52
2022/07/19 11:51:02;;;;;;;2.78;2.58;;;34.40;51.20;;;;;;5107595;28;20267;-53
2022/07/19 11:53:32;;;;;;;7.90;2.88;;;34.40;51.70;;;;;;5106945;28;20199;-53
2022/07/19 11:56:00;;;;;;;6.18;2.65;;;34.40;53.10;;;;;;5108712;28;20223;-53
2022/07/19 11:58:29;;;;;;;4.72;2.75;;;34.40;51.70;;;;;;5108827;28;20219;-52
2022/07/19 12:01:07;;;;;;;4.28;2.80;;;34.30;52.30;;;;;;5108807;28;20203;-54
2022/07/19 12:03:35;;;;;;;3.28;2.40;;;34.40;53.10;;;;;;5109768;28;20203;-53
2022/07/19 12:06:06;;;;;;;4.68;2.60;;;34.40;50.90;;;;;;5106846;28;20748;-52
2022/07/19 12:08:42;;;;;;;4.47;2.55;;;34.40;50.50;;;;;;5109714;28;20195;-53
2022/07/19 12:11:22;;;;;;;4.13;2.80;;;34.30;49.50;;;;;;5107157;28;20220;-52
2022/07/19 12:13:52;;;;;;;5.40;2.80;;;34.30;51.00;;;;;;5109861;28;20199;-51
2022/07/19 12:16:22;;;;;;;4.93;2.80;;;34.40;50.80;;;;;;5110495;28;20226;-53
2022/07/19 12:18:53;;;;;;;6.70;2.72;;;34.30;49.50;;;;;;5108657;28;20227;-53
2022/07/19 12:21:28;;;;;;;5.13;2.60;;;34.40;49.00;;;;;;5109958;28;20195;-53
2022/07/19 12:24:22;;;;;;;4.95;2.58;;;34.30;52.30;;;;;;5092674;28;20212;-52
2022/07/19 12:27:03;;;;;;;3.17;2.83;;;34.40;50.20;;;;;;5107120;28;20198;-53
2022/07/19 12:29:35;;;;;;;3.95;2.63;;;34.40;49.90;;;;;;5100540;28;20206;-53
2022/07/19 12:32:05;;;;;;;4.00;2.72;;;34.40;49.30;;;;;;5108810;28;20203;-52
2022/07/19 12:34:44;;;;;;;3.53;2.67;;;34.30;49.90;;;;;;5110305;28;20215;-52
2022/07/19 12:37:22;;;;;;;5.65;3.00;;;34.30;48.80;;;;;;5108461;28;20279;-53
2022/07/19 12:40:00;;;;;;;5.15;2.90;;;34.20;48.80;;;;;;5109104;28;20208;-53
2022/07/19 12:42:36;;;;;;;4.95;2.83;;;34.20;47.90;;;;;;5109226;28;20875;-53
2022/07/19 12:45:06;;;;;;;4.60;3.22;;;34.20;47.90;;;;;;5106787;28;20238;-54
2022/07/19 12:47:34;;;;;;;4.35;2.95;;;34.20;48.00;;;;;;5109028;28;20248;-53
2022/07/19 12:50:06;;;;;;;4.72;2.90;;;34.20;49.20;;;;;;5108629;28;20664;-52
2022/07/19 12:52:39;;;;;;;4.35;2.65;;;34.30;50.40;;;;;;5107416;28;20252;-53
2022/07/19 12:55:09;;;;;;;5.47;2.83;;;34.40;48.40;;;;;;5113063;28;20227;-51
2022/07/19 12:57:46;;;;;;;2.92;2.50;;;34.50;48.20;;;;;;5111309;28;20222;-52
2022/07/19 13:00:15;;;;;;;3.38;2.55;;;34.40;48.10;;;;;;5113142;28;20196;-50
2022/07/19 13:02:45;;;;;;;3.33;2.63;;;34.40;48.70;;;;;;5112585;28;20199;-53
2022/07/19 13:05:13;;;;;;;3.88;2.67;;;34.40;49.50;;;;;;5112563;28;20268;-53
2022/07/19 13:07:41;;;;;;;3.75;2.58;;;34.50;48.00;;;;;;5112632;28;20252;-53
2022/07/19 13:10:11;;;;;;;4.07;2.50;;;34.60;50.10;;;;;;5112743;28;20215;-53